Saltar para o conteúdo principal

Coruche / Cruz Do Leão

ID 1210550 · 39.0710, -8.4000 mapa

Última leitura · 2026-05-09 19:00 (Europe/Lisbon)

Temperatura
14.0 °C
Humidade
89 %
Pressão
1,008.0 hPa
Precipitação
0.0 mm
Radiação
Velocidade do vento
6.8 km/h
Direcção do vento
SW · Sudoeste

Histórico de 24 horas

Hora (Europe/Lisbon) Temperatura Humidade Pressão Chuva Vento Direcção
2026-05-09 19:00 14.0 °C 89 % 1,008.0 0.0 mm 6.8 km/h SW
2026-05-09 18:00 13.7 °C 90 % 1,007.5 2.5 mm 6.8 km/h SW
2026-05-09 17:00 15.1 °C 84 % 1,006.5 0.1 mm 7.2 km/h W
2026-05-09 16:00 16.2 °C 74 % 1,006.3 0.7 mm 11.9 km/h SW
2026-05-09 15:00 18.8 °C 60 % 1,005.6 0.0 mm 20.9 km/h S
2026-05-09 14:00 18.8 °C 61 % 1,005.3 0.0 mm 17.3 km/h S
2026-05-09 13:00 16.4 °C 78 % 1,005.3 0.0 mm 20.2 km/h S
2026-05-09 12:00 16.4 °C 78 % 1,004.5 0.0 mm 12.2 km/h SW
2026-05-09 11:00 15.9 °C 84 % 1,004.0 0.0 mm 11.5 km/h S
2026-05-09 10:00 14.4 °C 94 % 1,004.2 0.0 mm 13.0 km/h SE
2026-05-09 09:00 12.7 °C 100 % 1,004.4 0.0 mm 13.3 km/h SE
2026-05-09 08:00 11.7 °C 100 % 1,004.6 5.5 mm 12.6 km/h SE
2026-05-09 07:00 12.1 °C 99 % 1,004.4 4.0 mm 14.4 km/h S
2026-05-09 06:00 11.8 °C 99 % 1,004.4 0.0 mm 12.6 km/h SE
2026-05-09 05:00 11.9 °C 99 % 1,005.1 2.4 mm 12.6 km/h SE
2026-05-09 04:00 11.6 °C 96 % 1,005.7 0.0 mm 7.6 km/h SE
2026-05-09 03:00 11.4 °C 94 % 1,006.5 0.0 mm 11.5 km/h SE
2026-05-09 02:00 12.0 °C 90 % 1,007.0 0.0 mm 13.3 km/h SE
2026-05-09 01:00 12.6 °C 91 % 1,007.1 0.0 mm 16.9 km/h SE
2026-05-09 00:00 12.7 °C 94 % 1,006.8 0.1 mm 17.6 km/h SE
2026-05-08 23:00 12.5 °C 97 % 1,007.4 0.9 mm 13.7 km/h SE
2026-05-08 22:00 13.2 °C 95 % 1,008.0 1.0 mm 12.2 km/h S
2026-05-08 21:00 13.5 °C 94 % 1,007.5 0.3 mm 10.4 km/h S
2026-05-08 20:00 15.4 °C 77 % 1,007.1 0.4 mm 9.0 km/h SW